Terminal Aerodrome Forecast
Issued by NWS

Home | Current Version | Previous Version | Text Only | Print | Product List | Glossary On
Versions: 1 2 3 4 5 6 7 8 9 10 11 12 13 14 15 16 17 18 19 20 21 22 23 24 25 26 27 28 29 30 31 32 33 34 35 36
000
FTUS43 KPAH 300520
TAFOWB
TAF
KOWB 300520Z 3006/0106 19005KT P6SM VCSH BKN045
     FM301000 33002KT 5SM -SHRA BR BKN015 OVC050
      TEMPO 3012/3013 36002KT 3/4SM BR OVC015
     FM301600 34004KT P6SM BKN050
      TEMPO 0102/0106 5SM -SHRA BR OVC025
      AMD NOT SKED TIL 301100=

USA.gov is the U.S. government's official web portal to all federal, state and local government web resources and services.